Meteo Giornale » Osservazioni meteo Croazia » Zagreb-Pleso

ore: 17:30 - Osservazioni Meteo Zagreb-Pleso
Lat. 45° 44' N Lon. 16° 4' E Alt. 106 metri s.l.m.

sereno Europe/Zagreb

6 °C

Sereno

Temp. 24 Ore

1 °C

8 °C

Est/Nord-Est

16.7 Km/h

Dew point -10 °C

Umidità 30 %

Visibilità  10 Km

Il sole sorge alle ore 06:34

Il sole tramonta alle ore 19:24

Data e Ora Cielo e Fenomeni T °C DP °C Um. % Pres. hPa Vis. km Vento km/h
Oggi h: 17:30 sereno Sereno 6 -10 30 1022 10 E/NE 16.7
Oggi h: 17:00 sereno Sereno 7 -10 28 1022 10 E/NE 16.7
Oggi h: 16:30 sereno Sereno 7 -9 30 1023 10 NE 16.7
Oggi h: 16:00 sereno Sereno 8 -8 31 1023 10 E/NE 14.8
Oggi h: 15:30 sereno Sereno 7 -10 28 1023 10 E 20.3
Oggi h: 15:00 sereno Sereno 6 -8 35 1023 10 E 18.5
Oggi h: 14:30 sereno Sereno 8 -8 31 1023 10 E/NE 14.8
Oggi h: 14:00 sereno Sereno 7 -7 36 1024 10 E/NE 18.5
Oggi h: 13:30 sereno Sereno 6 -7 38 1024 10 E/NE 16.7
Oggi h: 13:00 sereno Sereno 5 -6 44 1024 10 E/NE 16.7
Oggi h: 12:30 sereno Sereno 5 -6 44 1024 10 E/NE 16.7
Oggi h: 12:00 nuvoloso Nuvoloso 6 -6 41 1024 10 E 18.5
Oggi h: 11:30 nuvoloso Nuvoloso 6 -5 45 1024 10 E 18.5
Oggi h: 11:00 poco_nuvoloso Poco Nuvoloso 5 -5 48 1024 10 E 18.5
Oggi h: 10:30 poco_nuvoloso Poco Nuvoloso 5 -5 48 1025 10 E 14.8
Oggi h: 10:00 poco_nuvoloso Poco Nuvoloso 5 -5 48 1025 10 E/NE 18.5
Oggi h: 09:30 poco_nuvoloso Poco Nuvoloso 4 -6 47 1025 10 NE 22.2
Oggi h: 08:30 sereno Sereno 2 -9 43 1024 10 N 18.5
Oggi h: 08:00 sereno Sereno 2 -8 47 1024 10 N 14.8
Oggi h: 07:30 sereno Sereno 1 -8 50 1024 10 N/NE 13
Oggi h: 07:00 sereno Sereno 1 -8 50 1024 10 E/NE 13
Oggi h: 06:00 sereno Sereno 2 -7 51 1023 10 N 7.4
Oggi h: 05:30 sereno Sereno 2 -8 47 1023 10 N/NE 7.4
Oggi h: 05:00 sereno Sereno 2 -7 51 1023 10 N 5.5
Oggi h: 04:30 sereno Sereno 2 -7 51 1023 10 N 5.5
Oggi h: 04:00 sereno Sereno 3 -7 47 1023 10 N 9.3
Oggi h: 03:30 sereno Sereno 2 -7 51 1024 10 N 7.4
Oggi h: 03:00 sereno Sereno 2 -6 55 1024 10 N 5.5
Oggi h: 02:30 sereno Sereno 3 -7 47 1024 10 NE 7.4
Oggi h: 02:00 sereno Sereno 3 -7 47 1024 10 NE 7.4
Oggi h: 00:30 sereno Sereno 3 -6 51 1024 10 N 3.7
Oggi h: 00:00 sereno Sereno 3 -5 55 1024 10 N 3.7
Ieri h: 23:30 sereno Sereno 4 -9 38 1024 10 N 3.7
Ieri h: 23:00 sereno Sereno 4 -9 38 1024 10 N 5.5
Ieri h: 22:30 sereno Sereno 4 -8 41 1023 10 N 5.5
Ieri h: 22:00 sereno Sereno 5 -8 38 1023 10 E/NE 9.3
Ieri h: 21:30 sereno Sereno 5 -8 38 1023 10 E/NE 9.3
Ieri h: 21:00 sereno Sereno 5 -8 38 1023 10 E/NE 13
Ieri h: 20:30 sereno Sereno 5 -6 44 1022 10 E/NE 9.3
Ieri h: 20:00 sereno Sereno 5 -4 52 1022 10 N 3.7
Ieri h: 19:30 sereno Sereno 5 -4 52 1021 10 N 5.5
Ieri h: 19:00 sereno Sereno 5 -4 52 1021 10 N 5.5